10°C Temp
7°C Dewpoint
% Humidity
Temperature
19 KM/H
12 MPH
10 KTS
180°
Due South

Wind Speed
Partly Cloudy
Conditions
Pressure 1005.92 (hPa) - 29.7 (in)
Visibility 6.2 (mi) - 10.0 (km)

Current Conditions
EHAM
Location 6km (3.2mi)
Metar :EHAM 081755Z 18010KT 9999 FEW020 10/07 Q1006 TEMPO 6000 SHRA SCT020CB
Sun 8th March 19:55 pm

Airport
  Metar Aviation API Data Provided by https://www.checkwx.com/ PHP scripts by weather34.com ©2020